Time;durP1;ratioP1;P1;durP2;ratioP2;P2;SDS_P1;SDS_P2;PMS_P1;PMS_P2;Temp;Humidity;BMP_temperature;BMP_pressure;BME280_temperature;BME280_humidity;BME280_pressure;Samples;Min_cycle;Max_cycle;Signal;HPM_P1;HPM_P2
2023/12/01 00:00:11;;;;;;;26.45;13.68;;;1.30;99.90;;;;;;5030887;28;20456;-63
2023/12/01 00:02:37;;;;;;;27.17;13.30;;;1.30;99.90;;;;;;5031011;28;20073;-63
2023/12/01 00:05:04;;;;;;;31.10;13.48;;;1.30;99.90;;;;;;5030980;28;20045;-63
2023/12/01 00:07:30;;;;;;;28.48;13.35;;;1.30;99.90;;;;;;5031034;28;20125;-64
2023/12/01 00:09:56;;;;;;;27.98;14.52;;;1.40;99.90;;;;;;5030419;28;20519;-64
2023/12/01 00:12:23;;;;;;;26.02;12.60;;;1.30;99.90;;;;;;5031093;28;20049;-64
2023/12/01 00:14:49;;;;;;;25.88;11.85;;;1.30;99.90;;;;;;5030537;28;20068;-63
2023/12/01 00:17:15;;;;;;;27.48;13.20;;;1.40;99.90;;;;;;5047151;28;20057;-64
2023/12/01 00:19:42;;;;;;;25.65;12.25;;;1.40;99.90;;;;;;5030478;28;20045;-64
2023/12/01 00:22:09;;;;;;;25.35;11.60;;;1.30;99.90;;;;;;5047266;28;20454;-63
2023/12/01 00:24:35;;;;;;;27.90;11.85;;;1.40;99.90;;;;;;5030871;28;20038;-63
2023/12/01 00:27:02;;;;;;;22.83;11.18;;;1.50;99.90;;;;;;5030571;28;20067;-63
2023/12/01 00:29:28;;;;;;;25.10;12.98;;;1.40;99.90;;;;;;5030088;28;20128;-66
2023/12/01 00:31:55;;;;;;;27.88;12.40;;;1.40;99.90;;;;;;5030648;28;20049;-63
2023/12/01 00:34:21;;;;;;;26.08;12.45;;;1.40;99.90;;;;;;5046671;28;20037;-63
2023/12/01 00:36:48;;;;;;;27.05;12.02;;;1.40;99.90;;;;;;5030439;28;20545;-63
2023/12/01 00:39:14;;;;;;;27.27;12.60;;;1.40;99.90;;;;;;5013248;28;20049;-63
2023/12/01 00:41:40;;;;;;;26.17;12.25;;;1.50;99.90;;;;;;5031065;28;20504;-64
2023/12/01 00:44:07;;;;;;;25.88;12.00;;;1.40;99.90;;;;;;5030082;28;20053;-64
2023/12/01 00:46:33;;;;;;;27.48;12.73;;;1.50;99.90;;;;;;5046782;28;20148;-64
2023/12/01 00:48:59;;;;;;;27.80;13.20;;;1.40;99.90;;;;;;5029645;28;20068;-63
2023/12/01 00:51:26;;;;;;;26.27;13.02;;;1.40;99.90;;;;;;5046900;28;20374;-63
2023/12/01 00:53:52;;;;;;;24.30;12.90;;;1.40;99.90;;;;;;5046351;28;20081;-64
2023/12/01 00:56:18;;;;;;;24.85;11.77;;;1.50;99.90;;;;;;5010475;28;20383;-63
2023/12/01 00:58:44;;;;;;;28.23;13.05;;;1.50;99.90;;;;;;5043053;28;20049;-63
2023/12/01 01:01:11;;;;;;;29.63;12.68;;;1.40;99.90;;;;;;5010012;28;20466;-64
2023/12/01 01:03:38;;;;;;;30.05;13.50;;;1.40;99.90;;;;;;5043172;28;20130;-64
2023/12/01 01:06:04;;;;;;;27.95;13.70;;;1.40;99.90;;;;;;5046202;28;20071;-64
2023/12/01 01:08:31;;;;;;;27.35;12.45;;;1.30;99.90;;;;;;5031021;28;20347;-64
2023/12/01 01:10:58;;;;;;;27.92;13.23;;;1.30;99.90;;;;;;5046086;28;20064;-63
2023/12/01 01:13:26;;;;;;;27.52;12.45;;;1.40;99.90;;;;;;5030024;28;20438;-64
2023/12/01 01:15:55;;;;;;;26.98;13.18;;;1.30;99.90;;;;;;5029795;28;20049;-63
2023/12/01 01:18:23;;;;;;;26.10;12.40;;;1.40;99.90;;;;;;5046430;28;20056;-63
2023/12/01 01:20:49;;;;;;;25.25;12.07;;;1.30;99.90;;;;;;5029265;28;20472;-63
2023/12/01 01:23:16;;;;;;;26.08;11.18;;;1.30;99.90;;;;;;5029166;28;20053;-63
2023/12/01 01:25:42;;;;;;;25.27;11.30;;;1.30;99.90;;;;;;5029275;28;20041;-64
2023/12/01 01:28:09;;;;;;;27.50;13.02;;;1.30;99.90;;;;;;5029375;28;20060;-63
2023/12/01 01:30:35;;;;;;;23.27;11.82;;;1.30;99.90;;;;;;5029010;28;20053;-64
2023/12/01 01:33:02;;;;;;;23.15;11.60;;;1.30;99.90;;;;;;5029620;28;20053;-64
2023/12/01 01:35:30;;;;;;;24.90;12.05;;;1.20;99.90;;;;;;5029312;28;20046;-64
2023/12/01 01:37:56;;;;;;;27.50;13.00;;;1.20;99.90;;;;;;5029300;28;20056;-63
2023/12/01 01:40:23;;;;;;;25.63;12.18;;;1.30;99.90;;;;;;5029532;28;20049;-64
2023/12/01 01:42:49;;;;;;;23.73;11.18;;;1.30;99.90;;;;;;5029309;28;20046;-64
2023/12/01 01:45:16;;;;;;;27.85;12.55;;;1.20;99.90;;;;;;5029340;28;20054;-63
2023/12/01 01:47:42;;;;;;;27.00;12.38;;;1.20;99.90;;;;;;5031876;28;20100;-63
2023/12/01 01:50:08;;;;;;;27.88;12.85;;;1.20;99.90;;;;;;5032220;28;20041;-64
2023/12/01 01:52:37;;;;;;;24.48;11.98;;;1.20;99.90;;;;;;5032601;28;20061;-64
2023/12/01 01:55:03;;;;;;;24.88;11.60;;;1.10;99.90;;;;;;5028964;28;20049;-64
2023/12/01 01:57:38;;;;;;;25.13;13.00;;;1.10;99.90;;;;;;5012695;28;20052;-64
2023/12/01 02:00:06;;;;;;;23.17;12.50;;;1.20;99.90;;;;;;5012637;28;20042;-63
2023/12/01 02:02:37;;;;;;;23.92;11.70;;;1.20;99.90;;;;;;5046087;28;20349;-64
2023/12/01 02:05:12;;;;;;;26.63;12.40;;;1.20;99.90;;;;;;5055806;28;20134;-63
2023/12/01 02:07:40;;;;;;;27.00;14.38;;;1.20;99.90;;;;;;5032273;28;20114;-64
2023/12/01 02:10:15;;;;;;;25.75;11.68;;;1.20;99.90;;;;;;5031751;28;20053;-63
2023/12/01 02:12:43;;;;;;;25.08;12.45;;;1.10;99.90;;;;;;5032259;28;20061;-63
2023/12/01 02:15:10;;;;;;;25.83;12.68;;;1.10;99.90;;;;;;5031937;28;20045;-63
2023/12/01 02:17:38;;;;;;;21.85;10.57;;;1.10;99.90;;;;;;5032255;28;20048;-62
2023/12/01 02:20:06;;;;;;;24.00;10.68;;;1.10;99.90;;;;;;5065403;28;20103;-63
2023/12/01 02:22:33;;;;;;;26.85;12.30;;;1.10;99.90;;;;;;5032586;28;20064;-63
2023/12/01 02:24:59;;;;;;;25.40;12.88;;;1.10;99.90;;;;;;5065384;28;20045;-64
2023/12/01 02:27:26;;;;;;;26.90;12.73;;;1.10;99.90;;;;;;5032196;28;20549;-63
2023/12/01 02:29:52;;;;;;;26.02;12.18;;;1.10;99.90;;;;;;5065002;28;20052;-63
2023/12/01 02:32:18;;;;;;;26.52;11.63;;;1.10;99.90;;;;;;5032155;28;20059;-63
2023/12/01 02:34:45;;;;;;;27.88;11.00;;;1.00;99.90;;;;;;5068502;28;20044;-63
2023/12/01 02:37:11;;;;;;;27.55;11.40;;;1.00;99.90;;;;;;5036090;28;20074;-63
2023/12/01 02:39:38;;;;;;;27.08;11.70;;;1.10;99.90;;;;;;5068615;28;20055;-63
2023/12/01 02:42:04;;;;;;;24.20;12.50;;;1.10;99.90;;;;;;5053537;28;20053;-63
2023/12/01 02:44:30;;;;;;;25.65;10.88;;;1.10;99.90;;;;;;5051970;28;20044;-63
2023/12/01 02:46:57;;;;;;;22.73;10.23;;;1.10;99.90;;;;;;5069222;28;20106;-63
2023/12/01 02:49:24;;;;;;;;;;;1.10;99.90;;;;;;5035674;28;20061;-63
2023/12/01 02:51:50;;;;;;;25.92;12.10;;;1.10;99.90;;;;;;5035621;28;19932;-63
2023/12/01 02:54:17;;;;;;;;;;;1.00;99.90;;;;;;5035988;28;20060;-63
2023/12/01 02:56:43;;;;;;;24.15;10.90;;;0.90;99.90;;;;;;5035500;28;19956;-64
2023/12/01 02:59:09;;;;;;;21.52;10.10;;;0.90;99.90;;;;;;5035005;28;20473;-64
2023/12/01 03:01:36;;;;;;;19.05;9.70;;;0.90;99.90;;;;;;5068667;28;20055;-63
2023/12/01 03:04:02;;;;;;;;;;;0.90;99.90;;;;;;5035913;28;20465;-63
2023/12/01 03:06:28;;;;;;;23.38;11.23;;;0.70;99.90;;;;;;5035385;28;19925;-63
2023/12/01 03:08:54;;;;;;;24.15;10.52;;;0.80;99.90;;;;;;5035209;28;20053;-62
2023/12/01 03:11:24;;;;;;;23.35;9.95;;;0.70;99.90;;;;;;5068480;28;20063;-63
2023/12/01 03:13:50;;;;;;;22.92;10.30;;;0.80;99.90;;;;;;5035442;28;20053;-64
2023/12/01 03:16:17;;;;;;;;;;;0.70;99.90;;;;;;5068684;28;20061;-62
2023/12/01 03:18:43;;;;;;;21.42;9.73;;;0.70;99.90;;;;;;5034839;28;19943;-63
2023/12/01 03:21:12;;;;;;;;;;;0.70;99.90;;;;;;5052034;28;20072;-63
2023/12/01 03:23:42;;;;;;;16.50;8.52;;;0.60;99.90;;;;;;5018696;28;19920;-63
2023/12/01 03:26:08;;;;;;;19.17;9.02;;;0.60;99.90;;;;;;5067808;28;20069;-63
2023/12/01 03:28:35;;;;;;;21.10;9.85;;;0.60;99.90;;;;;;5034948;28;20389;-63
2023/12/01 03:31:02;;;;;;;17.00;9.15;;;0.50;99.90;;;;;;5067925;28;20052;-63
2023/12/01 03:33:30;;;;;;;21.17;9.73;;;0.50;99.90;;;;;;5035019;28;20072;-64
2023/12/01 03:35:57;;;;;;;20.35;9.93;;;0.60;99.90;;;;;;5034785;28;20056;-63
2023/12/01 03:38:23;;;;;;;20.88;9.73;;;0.50;99.90;;;;;;5035015;28;20132;-62
2023/12/01 03:40:49;;;;;;;21.80;9.40;;;0.60;99.90;;;;;;5068276;28;20041;-63
2023/12/01 03:43:15;;;;;;;22.17;9.93;;;0.50;99.90;;;;;;5034833;28;20052;-62
2023/12/01 03:45:42;;;;;;;19.58;9.00;;;0.50;99.90;;;;;;5067043;28;20048;-62
2023/12/01 03:48:08;;;;;;;17.73;8.18;;;0.30;99.90;;;;;;5034526;28;20057;-63
2023/12/01 03:50:34;;;;;;;17.02;8.98;;;0.40;99.90;;;;;;5067277;28;20144;-63
2023/12/01 03:53:01;;;;;;;20.42;9.15;;;0.40;99.90;;;;;;5034540;28;20064;-63
2023/12/01 03:55:27;;;;;;;22.05;10.65;;;0.30;99.90;;;;;;5067882;28;20045;-63
2023/12/01 03:57:53;;;;;;;18.95;9.77;;;0.30;99.90;;;;;;5034663;28;20052;-63
2023/12/01 04:00:22;;;;;;;18.85;9.70;;;0.20;99.90;;;;;;5067153;28;20116;-62
2023/12/01 04:02:49;;;;;;;19.65;9.93;;;0.20;99.90;;;;;;5034306;28;20053;-63
2023/12/01 04:05:19;;;;;;;23.45;12.18;;;0.20;99.90;;;;;;5050787;28;20385;-64
2023/12/01 04:07:46;;;;;;;21.85;9.30;;;0.20;99.90;;;;;;5034314;28;20048;-63
2023/12/01 04:10:13;;;;;;;19.27;9.80;;;0.20;99.90;;;;;;5067146;28;20049;-62
2023/12/01 04:12:44;;;;;;;20.48;9.68;;;0.30;99.90;;;;;;5034359;28;20053;-64
2023/12/01 04:15:15;;;;;;;22.90;11.13;;;0.20;99.90;;;;;;5034058;28;20044;-64
2023/12/01 04:17:42;;;;;;;19.25;10.00;;;0.20;99.90;;;;;;5034102;28;20060;-63
2023/12/01 04:20:27;;;;;;;21.65;10.23;;;0.20;99.90;;;;;;5050055;28;20055;-63
2023/12/01 04:22:58;;;;;;;20.98;9.07;;;0.00;99.90;;;;;;5034201;28;20045;-63
2023/12/01 04:25:25;;;;;;;18.30;9.07;;;0.10;99.90;;;;;;5067268;28;20398;-63
2023/12/01 04:27:52;;;;;;;19.92;9.25;;;0.10;99.90;;;;;;5033786;28;20461;-64
2023/12/01 04:30:20;;;;;;;17.13;9.70;;;0.10;99.90;;;;;;5033653;28;20045;-63
2023/12/01 04:32:52;;;;;;;17.48;9.93;;;0.00;99.90;;;;;;5033919;28;20398;-64
2023/12/01 04:35:27;;;;;;;18.15;9.50;;;0.10;99.90;;;;;;5033552;28;20060;-63
2023/12/01 04:37:54;;;;;;;17.33;8.73;;;0.00;99.90;;;;;;5033595;28;20044;-63
2023/12/01 04:40:21;;;;;;;18.83;8.48;;;0.00;99.90;;;;;;5066713;28;20053;-64
2023/12/01 04:42:48;;;;;;;18.48;8.95;;;0.00;99.90;;;;;;5033708;28;20056;-63
2023/12/01 04:45:20;;;;;;;21.10;10.15;;;0.00;99.90;;;;;;5033224;28;20461;-64
2023/12/01 04:47:51;;;;;;;19.23;9.18;;;-0.10;99.90;;;;;;5033950;28;20053;-63
2023/12/01 04:50:25;;;;;;;17.90;8.70;;;-0.10;99.90;;;;;;5033488;28;20422;-63
2023/12/01 04:52:53;;;;;;;18.35;10.00;;;-0.10;99.90;;;;;;5033449;28;20374;-64
2023/12/01 04:55:23;;;;;;;19.75;8.68;;;-0.10;99.90;;;;;;5033031;28;20098;-64
2023/12/01 04:57:49;;;;;;;17.25;8.82;;;-0.20;99.90;;;;;;5033436;28;20056;-63
2023/12/01 05:00:21;;;;;;;18.98;8.82;;;-0.20;99.90;;;;;;5066025;28;20080;-64
2023/12/01 05:03:04;;;;;;;16.15;8.90;;;-0.20;99.90;;;;;;5016873;28;20087;-64
2023/12/01 05:05:35;;;;;;;17.02;8.80;;;-0.20;99.90;;;;;;5033147;28;20063;-64
2023/12/01 05:08:04;;;;;;;15.45;8.13;;;-0.20;99.90;;;;;;5049768;28;20052;-63
2023/12/01 05:10:33;;;;;;;16.45;9.10;;;-0.30;99.90;;;;;;5032736;28;20051;-62
2023/12/01 05:13:02;;;;;;;15.20;8.68;;;-0.30;99.90;;;;;;5032896;28;20353;-62
2023/12/01 05:15:30;;;;;;;16.90;8.45;;;-0.30;99.90;;;;;;5065643;28;20049;-63
2023/12/01 05:18:00;;;;;;;16.50;8.90;;;-0.30;99.90;;;;;;5033144;28;20095;-63
2023/12/01 05:20:29;;;;;;;17.88;10.27;;;-0.30;99.90;;;;;;5065844;28;20041;-62
2023/12/01 05:23:00;;;;;;;18.65;9.57;;;-0.40;99.90;;;;;;5032764;28;20370;-63
2023/12/01 05:25:32;;;;;;;19.23;9.25;;;-0.40;99.90;;;;;;5032748;28;20045;-62
2023/12/01 05:28:00;;;;;;;21.20;11.32;;;-0.40;99.90;;;;;;5032955;28;20064;-63
2023/12/01 05:30:34;;;;;;;20.70;10.23;;;-0.40;99.90;;;;;;5032478;28;20056;-62
2023/12/01 05:33:01;;;;;;;21.80;10.55;;;-0.50;99.90;;;;;;5033050;28;20053;-62
2023/12/01 05:35:28;;;;;;;20.27;10.20;;;-0.50;99.90;;;;;;5049038;28;20476;-63
2023/12/01 05:37:56;;;;;;;17.90;9.73;;;-0.40;99.90;;;;;;5032922;28;20056;-63
2023/12/01 05:40:27;;;;;;;18.98;10.05;;;-0.40;99.90;;;;;;5032151;28;20049;-64
2023/12/01 05:42:55;;;;;;;17.77;10.93;;;-0.40;99.90;;;;;;5032638;28;20072;-64
2023/12/01 05:45:23;;;;;;;15.77;10.35;;;-0.60;99.90;;;;;;5065583;28;20049;-64
2023/12/01 05:47:52;;;;;;;15.35;8.40;;;-0.60;99.90;;;;;;5032596;28;20049;-63
2023/12/01 05:50:29;;;;;;;17.13;9.90;;;-0.80;99.90;;;;;;5032575;28;20063;-64
2023/12/01 05:52:58;;;;;;;18.13;10.05;;;-0.80;99.90;;;;;;5032971;28;20049;-63
2023/12/01 05:55:26;;;;;;;18.17;10.93;;;-0.90;99.90;;;;;;5049207;28;20705;-62
2023/12/01 05:57:54;;;;;;;18.40;9.90;;;-0.90;99.90;;;;;;5032798;28;20373;-63
2023/12/01 06:00:23;;;;;;;17.60;9.38;;;-1.10;99.90;;;;;;5065125;28;20127;-63
2023/12/01 06:02:51;;;;;;;18.85;9.40;;;-1.10;99.90;;;;;;5031284;28;20676;-63
2023/12/01 06:05:19;;;;;;;19.15;10.10;;;-1.20;99.90;;;;;;5030142;28;20558;-63
2023/12/01 06:07:49;;;;;;;19.65;9.98;;;-1.10;99.90;;;;;;5048929;28;20106;-63
2023/12/01 06:10:17;;;;;;;19.55;10.05;;;-1.20;99.90;;;;;;5038420;28;20060;-62
2023/12/01 06:12:44;;;;;;;20.00;9.77;;;-1.30;99.90;;;;;;5072277;28;20063;-62
2023/12/01 06:15:13;;;;;;;20.13;9.65;;;-1.50;99.90;;;;;;5038918;28;20067;-63
2023/12/01 06:17:41;;;;;;;20.05;11.55;;;-1.40;99.90;;;;;;5072126;28;20059;-63
2023/12/01 06:20:17;;;;;;;20.13;10.55;;;-1.40;99.90;;;;;;5068273;28;20052;-63
2023/12/01 06:22:57;;;;;;;17.15;10.13;;;-1.40;99.90;;;;;;5038211;28;20419;-63
2023/12/01 06:25:29;;;;;;;19.13;9.27;;;-1.50;99.90;;;;;;5038316;28;20473;-62
2023/12/01 06:27:58;;;;;;;18.88;9.70;;;-1.50;99.90;;;;;;5038788;28;20053;-63
2023/12/01 06:30:26;;;;;;;20.38;10.93;;;-1.60;99.90;;;;;;5038456;28;20057;-63
2023/12/01 06:32:53;;;;;;;21.48;10.30;;;-1.70;99.90;;;;;;5039184;28;20414;-63
2023/12/01 06:35:21;;;;;;;22.42;11.77;;;-1.70;99.90;;;;;;5038630;28;20422;-63
2023/12/01 06:37:48;;;;;;;23.05;11.18;;;-1.60;99.90;;;;;;5038159;28;20311;-62
2023/12/01 06:40:16;;;;;;;23.42;11.02;;;-1.60;99.90;;;;;;5070474;28;20056;-63
2023/12/01 06:42:44;;;;;;;19.45;9.85;;;-1.60;99.90;;;;;;5038043;28;20048;-63
2023/12/01 06:45:11;;;;;;;23.65;11.25;;;-1.60;99.90;;;;;;5038375;28;20609;-62
2023/12/01 06:47:40;;;;;;;21.13;11.10;;;-1.70;99.90;;;;;;5038337;28;20057;-64
2023/12/01 06:50:11;;;;;;;18.85;10.38;;;-1.70;99.90;;;;;;5036848;28;20072;-62
2023/12/01 06:52:38;;;;;;;23.05;10.52;;;-1.60;99.90;;;;;;5037414;28;20049;-63
2023/12/01 06:55:07;;;;;;;20.30;10.82;;;-1.70;99.90;;;;;;5037653;28;20060;-63
2023/12/01 06:57:44;;;;;;;23.55;11.32;;;-1.60;99.90;;;;;;5037200;28;20457;-62
2023/12/01 07:03:06;;;;;;;22.30;11.57;;;-1.70;99.90;;;;;;5037225;28;20045;-62
2023/12/01 07:05:34;;;;;;;22.55;10.65;;;-1.60;99.90;;;;;;5053855;28;20037;-63
2023/12/01 07:08:01;;;;;;;23.15;10.77;;;-1.60;99.90;;;;;;5037487;28;20398;-64
2023/12/01 07:10:28;;;;;;;24.00;12.50;;;-1.60;99.90;;;;;;5061445;28;20285;-63
2023/12/01 07:12:54;;;;;;;22.25;11.18;;;-1.70;99.90;;;;;;5048197;28;20051;-63
2023/12/01 07:15:22;;;;;;;21.15;9.93;;;-1.70;99.90;;;;;;5045677;28;20056;-63
2023/12/01 07:17:53;;;;;;;21.58;9.93;;;-1.80;99.90;;;;;;5069974;28;20049;-63
2023/12/01 07:20:20;;;;;;;21.15;10.45;;;-1.80;99.90;;;;;;5034894;28;20056;-64
2023/12/01 07:22:48;;;;;;;22.13;10.57;;;-1.80;99.90;;;;;;5035395;28;20045;-63
2023/12/01 07:25:22;;;;;;;22.10;11.10;;;-1.90;99.90;;;;;;5034190;28;20045;-63
2023/12/01 07:27:51;;;;;;;23.05;11.07;;;-1.90;99.90;;;;;;5034963;28;20448;-63
2023/12/01 07:30:18;;;;;;;21.52;10.68;;;-2.00;99.90;;;;;;5034791;28;20048;-63
2023/12/01 07:32:45;;;;;;;20.83;10.13;;;-1.90;99.90;;;;;;5032716;28;20391;-63
2023/12/01 07:35:12;;;;;;;19.67;11.00;;;-2.00;99.90;;;;;;5045587;28;20075;-63
2023/12/01 07:37:42;;;;;;;24.63;12.20;;;-2.10;99.90;;;;;;5035954;28;20057;-63
2023/12/01 07:40:13;;;;;;;20.10;9.85;;;-2.10;99.90;;;;;;5033625;28;20064;-62
2023/12/01 07:42:40;;;;;;;21.40;11.45;;;-2.10;99.90;;;;;;5047281;28;20049;-63
2023/12/01 07:45:07;;;;;;;23.92;11.43;;;-2.20;99.90;;;;;;5036112;28;20045;-63
2023/12/01 07:47:34;;;;;;;24.85;11.35;;;-2.10;99.90;;;;;;5036009;28;20053;-64
2023/12/01 07:50:02;;;;;;;24.13;12.88;;;-2.10;99.90;;;;;;5053152;28;20381;-63
2023/12/01 07:52:28;;;;;;;21.88;11.27;;;-2.20;99.90;;;;;;5036169;28;20358;-63
2023/12/01 07:54:54;;;;;;;;;;;-2.10;99.90;;;;;;5053274;28;20158;-63
2023/12/01 07:57:21;;;;;;;21.42;11.32;;;-2.20;99.90;;;;;;5069635;28;19999;-64
2023/12/01 07:59:47;;;;;;;23.15;10.95;;;-2.20;99.90;;;;;;5036138;28;20045;-63
2023/12/01 08:02:13;;;;;;;;;;;-2.30;99.90;;;;;;5036993;28;20063;-63
2023/12/01 08:04:40;;;;;;;23.33;11.35;;;-2.20;99.90;;;;;;5036255;28;20344;-63
2023/12/01 08:07:07;;;;;;;20.95;10.85;;;-2.20;99.90;;;;;;5035634;28;20041;-63
2023/12/01 08:09:34;;;;;;;23.05;12.18;;;-2.10;99.90;;;;;;5036003;28;20057;-63
2023/12/01 08:12:04;;;;;;;25.45;12.18;;;-2.10;99.90;;;;;;5052728;28;20068;-63
2023/12/01 08:14:30;;;;;;;23.73;11.07;;;-2.10;99.90;;;;;;5035968;28;20052;-62
2023/12/01 08:16:56;;;;;;;;;;;-2.00;99.90;;;;;;5052787;28;20060;-63
2023/12/01 08:19:23;;;;;;;23.83;11.38;;;-2.00;99.90;;;;;;5035835;28;19921;-64
2023/12/01 08:21:49;;;;;;;;;;;-1.90;99.90;;;;;;5036249;28;20456;-63
2023/12/01 08:24:18;;;;;;;25.35;11.23;;;-1.90;99.90;;;;;;5038424;28;19939;-64
2023/12/01 08:26:46;;;;;;;25.73;11.45;;;-1.80;99.90;;;;;;5065160;28;20059;-63
2023/12/01 08:29:13;;;;;;;20.98;11.02;;;-1.80;99.90;;;;;;5051619;28;20131;-63
2023/12/01 08:31:39;;;;;;;22.63;10.88;;;-1.70;99.90;;;;;;5035503;28;20469;-62
2023/12/01 08:34:08;;;;;;;;;;;-1.70;99.90;;;;;;5036248;28;20072;-63
2023/12/01 08:36:34;;;;;;;19.08;9.77;;;-1.60;99.90;;;;;;5034887;28;19920;-62
2023/12/01 08:39:02;;;;;;;;;;;-1.60;99.90;;;;;;5036119;28;20068;-63
2023/12/01 08:41:29;;;;;;;21.98;10.52;;;-1.50;99.90;;;;;;5068634;28;19920;-63
2023/12/01 08:43:55;;;;;;;20.70;10.55;;;-1.50;99.90;;;;;;5035818;28;20056;-63
2023/12/01 08:46:22;;;;;;;21.15;11.43;;;-1.40;99.90;;;;;;5068063;28;20055;-63
2023/12/01 08:48:48;;;;;;;;;;;-1.40;99.90;;;;;;5032566;28;20061;-63
2023/12/01 08:51:14;;;;;;;22.60;10.95;;;-1.40;99.90;;;;;;5031949;28;19921;-62
2023/12/01 08:53:40;;;;;;;;;;;-1.40;99.90;;;;;;5032536;28;20072;-63
2023/12/01 08:56:07;;;;;;;26.65;11.82;;;-1.30;99.90;;;;;;5031203;28;19931;-63
2023/12/01 08:58:34;;;;;;;25.55;11.55;;;-1.40;99.90;;;;;;5031489;28;20065;-63
2023/12/01 09:01:00;;;;;;;;;;;-1.40;99.90;;;;;;5048941;28;20075;-62
2023/12/01 09:03:26;;;;;;;25.88;11.40;;;-1.30;99.90;;;;;;5048313;28;19940;-63
2023/12/01 09:05:53;;;;;;;25.25;11.85;;;-1.30;99.90;;;;;;5024114;28;20058;-63
2023/12/01 09:08:19;;;;;;;;;;;-1.30;99.90;;;;;;5032014;28;20386;-63
2023/12/01 09:10:45;;;;;;;24.40;11.07;;;-1.30;99.90;;;;;;5065499;28;20242;-63
2023/12/01 09:13:11;;;;;;;;;;;-1.30;99.90;;;;;;5032104;28;20056;-63
2023/12/01 09:15:38;;;;;;;24.55;11.15;;;-1.20;99.90;;;;;;5064119;28;20349;-63
2023/12/01 09:18:04;;;;;;;26.30;12.60;;;-1.20;99.90;;;;;;5031858;28;20072;-63
2023/12/01 09:20:30;;;;;;;;;;;-1.20;99.90;;;;;;5032138;28;20488;-63
2023/12/01 09:22:57;;;;;;;23.58;10.88;;;-1.20;99.90;;;;;;5048542;28;19939;-63
2023/12/01 09:25:23;;;;;;;24.42;11.68;;;-1.00;99.90;;;;;;5031788;28;20068;-63
2023/12/01 09:27:49;;;;;;;;;;;-0.90;99.90;;;;;;5032799;28;20049;-63
2023/12/01 09:30:16;;;;;;;25.33;11.07;;;-0.90;99.90;;;;;;5031423;28;19932;-63
2023/12/01 09:32:43;;;;;;;28.15;12.55;;;-0.90;99.90;;;;;;5031440;28;20049;-63
2023/12/01 09:35:10;;;;;;;26.02;12.68;;;-0.80;99.90;;;;;;5018545;28;20049;-63
2023/12/01 09:37:36;;;;;;;25.98;11.95;;;-0.80;99.90;;;;;;5047674;28;20049;-63
2023/12/01 09:40:03;;;;;;;;;;;-0.80;99.90;;;;;;5031708;28;20083;-63
2023/12/01 09:42:33;;;;;;;24.88;11.30;;;-0.80;99.90;;;;;;5063831;28;19928;-63
2023/12/01 09:45:00;;;;;;;23.80;12.30;;;-0.80;99.90;;;;;;5032949;28;20053;-64
2023/12/01 09:47:31;;;;;;;24.70;10.98;;;-0.80;99.90;;;;;;5031662;28;20132;-63
2023/12/01 09:49:57;;;;;;;28.42;12.27;;;-0.80;99.90;;;;;;5067574;28;20053;-64
2023/12/01 09:52:23;;;;;;;;;;;-0.60;99.90;;;;;;5034669;28;20362;-63
2023/12/01 09:54:50;;;;;;;24.90;11.20;;;-0.60;99.90;;;;;;5034053;28;19939;-63
2023/12/01 09:57:16;;;;;;;23.58;10.90;;;-0.50;99.90;;;;;;5033944;28;20053;-63
2023/12/01 09:59:47;;;;;;;25.00;11.80;;;-0.60;99.90;;;;;;5034421;28;20052;-62
2023/12/01 10:02:13;;;;;;;22.95;11.70;;;-0.60;99.90;;;;;;5034281;28;20045;-63
2023/12/01 10:04:39;;;;;;;22.52;10.75;;;-0.60;99.90;;;;;;5034144;28;20053;-63
2023/12/01 10:07:06;;;;;;;;;;;-0.50;99.90;;;;;;5050744;28;20049;-63
2023/12/01 10:09:33;;;;;;;24.15;11.95;;;-0.40;99.90;;;;;;5050692;28;20364;-63
2023/12/01 10:12:11;;;;;;;27.70;12.05;;;-0.30;99.90;;;;;;5034332;28;20063;-63
2023/12/01 10:14:41;;;;;;;25.95;11.68;;;-0.30;99.90;;;;;;5050395;28;20045;-63
2023/12/01 10:17:09;;;;;;;28.60;12.40;;;-0.30;99.90;;;;;;5034035;28;20481;-63
2023/12/01 10:19:47;;;;;;;23.40;11.50;;;-0.30;99.90;;;;;;5050527;28;20485;-63
2023/12/01 10:22:16;;;;;;;28.02;12.38;;;-0.30;99.90;;;;;;5034229;28;20037;-63
2023/12/01 10:25:03;;;;;;;26.67;11.18;;;-0.30;99.90;;;;;;5033696;28;20059;-63
2023/12/01 10:27:31;;;;;;;22.77;11.43;;;-0.30;99.90;;;;;;5033756;28;20049;-63
2023/12/01 10:30:14;;;;;;;28.10;12.30;;;-0.30;99.90;;;;;;5033807;28;20064;-63
2023/12/01 10:32:41;;;;;;;25.02;10.65;;;-0.30;99.90;;;;;;5034113;28;20056;-63
2023/12/01 10:35:08;;;;;;;21.73;10.95;;;-0.30;99.90;;;;;;5033672;28;20053;-63
2023/12/01 10:37:37;;;;;;;22.20;10.90;;;-0.20;99.90;;;;;;5033539;28;20048;-64
2023/12/01 10:40:05;;;;;;;24.92;11.43;;;-0.30;99.90;;;;;;5033704;28;20045;-63
2023/12/01 10:42:35;;;;;;;27.95;11.05;;;-0.20;99.90;;;;;;5034025;28;20057;-64
2023/12/01 10:45:03;;;;;;;20.75;9.55;;;-0.20;99.90;;;;;;5032471;28;20810;-64
2023/12/01 10:47:29;;;;;;;21.40;10.07;;;-0.20;99.90;;;;;;5050889;28;20048;-63
2023/12/01 10:49:59;;;;;;;19.95;9.55;;;-0.20;99.90;;;;;;5033750;28;20150;-64
2023/12/01 10:52:25;;;;;;;19.75;9.93;;;-0.20;99.90;;;;;;5034080;28;20060;-64
2023/12/01 10:54:53;;;;;;;20.95;9.73;;;-0.20;99.90;;;;;;5052276;28;20057;-64
2023/12/01 10:57:33;;;;;;;19.25;8.73;;;-0.20;99.90;;;;;;5037429;28;20067;-63
2023/12/01 11:00:04;;;;;;;15.75;7.95;;;-0.20;99.90;;;;;;5037368;28;20052;-64
2023/12/01 11:02:31;;;;;;;15.88;7.72;;;-0.10;99.90;;;;;;5037726;28;20049;-63
2023/12/01 11:04:58;;;;;;;14.73;7.80;;;-0.20;99.90;;;;;;5038283;28;20047;-64
2023/12/01 11:07:31;;;;;;;14.13;7.50;;;-0.10;99.90;;;;;;5037167;28;20136;-63
2023/12/01 11:10:00;;;;;;;16.38;8.40;;;-0.10;99.90;;;;;;5053771;28;20051;-64
2023/12/01 11:12:51;;;;;;;18.55;9.20;;;0.00;99.90;;;;;;5054122;28;20103;-64
2023/12/01 11:15:30;;;;;;;16.00;8.30;;;-0.10;99.90;;;;;;5053342;28;20064;-63
2023/12/01 11:17:56;;;;;;;21.48;9.30;;;-0.10;99.90;;;;;;5037354;28;20060;-62
2023/12/01 11:20:37;;;;;;;18.42;8.23;;;-0.10;99.90;;;;;;5037307;28;20132;-64
2023/12/01 11:23:12;;;;;;;18.40;8.57;;;0.00;99.90;;;;;;5036969;28;20052;-64
2023/12/01 11:25:49;;;;;;;17.77;9.65;;;0.00;99.90;;;;;;5035398;28;20733;-64
2023/12/01 11:28:26;;;;;;;17.95;9.35;;;-0.10;99.90;;;;;;5036887;28;20045;-64
2023/12/01 11:31:09;;;;;;;16.23;7.57;;;0.00;99.90;;;;;;5037149;28;20465;-64
2023/12/01 11:33:39;;;;;;;15.32;8.02;;;-0.10;99.90;;;;;;5037351;28;20056;-64
2023/12/01 11:36:24;;;;;;;17.08;8.23;;;-0.20;99.90;;;;;;5036416;28;20646;-64
2023/12/01 11:41:47;;;;;;;14.55;7.68;;;-0.10;99.90;;;;;;5053244;28;20056;-64
2023/12/01 11:44:24;;;;;;;17.08;9.52;;;0.00;99.90;;;;;;5036804;28;20366;-64
2023/12/01 11:46:55;;;;;;;17.35;7.78;;;0.00;99.90;;;;;;5036350;28;20500;-63
2023/12/01 11:49:32;;;;;;;18.27;8.35;;;-0.10;99.90;;;;;;5036771;28;20446;-64
2023/12/01 11:52:03;;;;;;;17.10;8.05;;;0.00;99.90;;;;;;5036588;28;20477;-64
2023/12/01 11:54:37;;;;;;;13.68;7.20;;;0.00;99.90;;;;;;5036310;28;20041;-64
2023/12/01 11:57:08;;;;;;;13.85;7.93;;;0.00;99.90;;;;;;5032766;28;20379;-64
2023/12/01 11:59:35;;;;;;;14.75;8.00;;;0.00;99.90;;;;;;5016721;28;20049;-64
2023/12/01 12:02:03;;;;;;;14.93;8.10;;;0.00;99.90;;;;;;5017167;28;20050;-64
2023/12/01 12:04:29;;;;;;;13.30;8.02;;;0.00;99.90;;;;;;5017401;28;20132;-64
2023/12/01 12:07:00;;;;;;;16.02;8.13;;;0.00;99.90;;;;;;5035290;28;20045;-64
2023/12/01 12:09:33;;;;;;;15.45;8.52;;;0.00;99.90;;;;;;5035793;28;20465;-64
2023/12/01 12:12:01;;;;;;;15.02;8.10;;;-0.10;99.90;;;;;;5035097;28;20141;-64
2023/12/01 12:14:29;;;;;;;16.35;8.57;;;0.00;99.90;;;;;;5035781;28;20049;-64
2023/12/01 12:16:57;;;;;;;13.07;7.45;;;0.10;99.90;;;;;;5035458;28;20045;-63
2023/12/01 12:19:23;;;;;;;14.82;8.00;;;0.00;99.90;;;;;;5036161;28;20057;-64
2023/12/01 12:21:50;;;;;;;18.10;8.80;;;0.10;99.90;;;;;;5052734;28;20051;-64
2023/12/01 12:24:17;;;;;;;15.70;8.75;;;0.20;99.90;;;;;;5035984;28;20049;-64
2023/12/01 12:26:43;;;;;;;14.90;7.88;;;0.10;99.90;;;;;;5037368;28;20044;-63
2023/12/01 12:29:11;;;;;;;;;;;0.20;99.90;;;;;;5036421;28;20480;-64
2023/12/01 12:31:40;;;;;;;16.55;8.68;;;0.10;99.90;;;;;;5068079;28;20288;-64
2023/12/01 12:34:08;;;;;;;15.13;8.23;;;0.10;99.90;;;;;;5019012;28;20044;-64
2023/12/01 12:36:38;;;;;;;14.88;7.43;;;0.00;99.90;;;;;;5034671;28;20063;-64
2023/12/01 12:39:06;;;;;;;18.38;8.77;;;0.10;99.90;;;;;;5019295;28;20049;-64
2023/12/01 12:41:35;;;;;;;19.23;11.23;;;0.20;99.90;;;;;;5038926;28;20049;-64
2023/12/01 12:44:03;;;;;;;14.15;8.13;;;0.20;99.90;;;;;;5019108;28;20045;-63
2023/12/01 12:46:30;;;;;;;15.85;8.20;;;0.30;99.90;;;;;;5051571;28;20049;-63
2023/12/01 12:48:58;;;;;;;16.33;9.07;;;0.30;99.90;;;;;;5035220;28;20052;-63
2023/12/01 12:51:26;;;;;;;14.32;8.18;;;0.40;99.90;;;;;;5035413;28;20057;-63
2023/12/01 12:53:56;;;;;;;13.60;7.80;;;0.30;99.90;;;;;;5035765;28;20071;-64